sensor_id;sensor_type;location;lat;lon;timestamp;temperature;humidity
21031;DHT22;61072;47.808;7.636;2023-04-15T00:01:02;9.10;99.90
21031;DHT22;61072;47.808;7.636;2023-04-15T00:03:29;9.10;99.90
21031;DHT22;61072;47.808;7.636;2023-04-15T00:05:57;9.20;99.90
21031;DHT22;61072;47.808;7.636;2023-04-15T00:08:23;9.20;99.90
21031;DHT22;61072;47.808;7.636;2023-04-15T00:10:51;9.20;99.90
21031;DHT22;61072;47.808;7.636;2023-04-15T00:13:18;9.30;99.90
21031;DHT22;61072;47.808;7.636;2023-04-15T00:15:45;9.30;99.90
21031;DHT22;61072;47.808;7.636;2023-04-15T00:18:11;9.30;99.90
21031;DHT22;61072;47.808;7.636;2023-04-15T00:20:38;9.40;99.90
21031;DHT22;61072;47.808;7.636;2023-04-15T00:23:05;9.40;99.90
21031;DHT22;61072;47.808;7.636;2023-04-15T00:25:31;9.40;99.90
21031;DHT22;61072;47.808;7.636;2023-04-15T00:27:58;9.40;99.90
21031;DHT22;61072;47.808;7.636;2023-04-15T00:30:25;9.40;99.90
21031;DHT22;61072;47.808;7.636;2023-04-15T00:32:52;9.50;99.90
21031;DHT22;61072;47.808;7.636;2023-04-15T00:35:19;9.50;99.90
21031;DHT22;61072;47.808;7.636;2023-04-15T00:37:46;9.50;99.90
21031;DHT22;61072;47.808;7.636;2023-04-15T00:40:13;9.50;99.90
21031;DHT22;61072;47.808;7.636;2023-04-15T00:42:43;9.50;99.90
21031;DHT22;61072;47.808;7.636;2023-04-15T00:45:11;9.50;99.90
21031;DHT22;61072;47.808;7.636;2023-04-15T00:47:40;9.50;99.90
21031;DHT22;61072;47.808;7.636;2023-04-15T00:50:08;9.50;99.90
21031;DHT22;61072;47.808;7.636;2023-04-15T00:52:35;9.50;99.90
21031;DHT22;61072;47.808;7.636;2023-04-15T00:55:02;9.50;99.90
21031;DHT22;61072;47.808;7.636;2023-04-15T00:57:30;9.50;99.90
21031;DHT22;61072;47.808;7.636;2023-04-15T00:59:57;9.50;99.90
21031;DHT22;61072;47.808;7.636;2023-04-15T01:02:24;9.50;99.90
21031;DHT22;61072;47.808;7.636;2023-04-15T01:04:51;9.50;99.90
21031;DHT22;61072;47.808;7.636;2023-04-15T01:07:18;9.50;99.90
21031;DHT22;61072;47.808;7.636;2023-04-15T01:09:44;9.50;99.90
21031;DHT22;61072;47.808;7.636;2023-04-15T01:12:13;9.50;99.90
21031;DHT22;61072;47.808;7.636;2023-04-15T01:14:41;9.50;99.90
21031;DHT22;61072;47.808;7.636;2023-04-15T01:17:08;9.60;99.90
21031;DHT22;61072;47.808;7.636;2023-04-15T01:19:37;9.60;99.90
21031;DHT22;61072;47.808;7.636;2023-04-15T01:22:04;9.60;99.90
21031;DHT22;61072;47.808;7.636;2023-04-15T01:24:31;9.70;99.90
21031;DHT22;61072;47.808;7.636;2023-04-15T01:26:59;9.70;99.90
21031;DHT22;61072;47.808;7.636;2023-04-15T01:29:26;9.70;99.90
21031;DHT22;61072;47.808;7.636;2023-04-15T01:31:54;9.70;99.90
21031;DHT22;61072;47.808;7.636;2023-04-15T01:34:21;9.70;99.90
21031;DHT22;61072;47.808;7.636;2023-04-15T01:36:48;9.70;99.90
21031;DHT22;61072;47.808;7.636;2023-04-15T01:39:15;9.80;99.90
21031;DHT22;61072;47.808;7.636;2023-04-15T01:41:41;9.80;99.90
21031;DHT22;61072;47.808;7.636;2023-04-15T01:44:08;9.80;99.90
21031;DHT22;61072;47.808;7.636;2023-04-15T01:46:35;9.80;99.90
21031;DHT22;61072;47.808;7.636;2023-04-15T01:49:02;9.80;99.90
21031;DHT22;61072;47.808;7.636;2023-04-15T01:51:29;9.80;99.90
21031;DHT22;61072;47.808;7.636;2023-04-15T01:53:55;9.80;99.90
21031;DHT22;61072;47.808;7.636;2023-04-15T01:56:22;9.80;99.90
21031;DHT22;61072;47.808;7.636;2023-04-15T01:58:50;9.80;99.90
21031;DHT22;61072;47.808;7.636;2023-04-15T02:01:17;9.80;99.90
21031;DHT22;61072;47.808;7.636;2023-04-15T02:03:45;9.80;99.90
21031;DHT22;61072;47.808;7.636;2023-04-15T02:06:13;9.80;99.90
21031;DHT22;61072;47.808;7.636;2023-04-15T02:08:40;9.80;99.90
21031;DHT22;61072;47.808;7.636;2023-04-15T02:11:07;9.80;99.90
21031;DHT22;61072;47.808;7.636;2023-04-15T02:13:34;9.80;99.90
21031;DHT22;61072;47.808;7.636;2023-04-15T02:16:02;9.80;99.90
21031;DHT22;61072;47.808;7.636;2023-04-15T02:18:29;9.80;99.90
21031;DHT22;61072;47.808;7.636;2023-04-15T02:20:56;9.80;99.90
21031;DHT22;61072;47.808;7.636;2023-04-15T02:23:24;9.80;99.90
21031;DHT22;61072;47.808;7.636;2023-04-15T02:25:51;9.80;99.90
21031;DHT22;61072;47.808;7.636;2023-04-15T02:28:20;9.80;99.90
21031;DHT22;61072;47.808;7.636;2023-04-15T02:30:50;9.80;99.90
21031;DHT22;61072;47.808;7.636;2023-04-15T02:33:18;9.80;99.90
21031;DHT22;61072;47.808;7.636;2023-04-15T02:35:45;9.80;99.90
21031;DHT22;61072;47.808;7.636;2023-04-15T02:38:13;9.80;99.90
21031;DHT22;61072;47.808;7.636;2023-04-15T02:40:42;9.80;99.90
21031;DHT22;61072;47.808;7.636;2023-04-15T02:43:08;9.80;99.90
21031;DHT22;61072;47.808;7.636;2023-04-15T02:45:35;9.80;99.90
21031;DHT22;61072;47.808;7.636;2023-04-15T02:48:02;9.80;99.90
21031;DHT22;61072;47.808;7.636;2023-04-15T02:50:32;9.80;99.90
21031;DHT22;61072;47.808;7.636;2023-04-15T02:52:59;9.80;99.90
21031;DHT22;61072;47.808;7.636;2023-04-15T02:55:27;9.80;99.90
21031;DHT22;61072;47.808;7.636;2023-04-15T02:57:54;9.80;99.90
21031;DHT22;61072;47.808;7.636;2023-04-15T03:00:21;9.80;99.90
21031;DHT22;61072;47.808;7.636;2023-04-15T03:02:51;9.80;99.90
21031;DHT22;61072;47.808;7.636;2023-04-15T03:05:22;9.80;99.90
21031;DHT22;61072;47.808;7.636;2023-04-15T03:07:52;9.80;99.90
21031;DHT22;61072;47.808;7.636;2023-04-15T03:10:19;9.80;99.90
21031;DHT22;61072;47.808;7.636;2023-04-15T03:12:46;9.90;99.90
21031;DHT22;61072;47.808;7.636;2023-04-15T03:15:13;9.90;99.90
21031;DHT22;61072;47.808;7.636;2023-04-15T03:17:39;9.90;99.90
21031;DHT22;61072;47.808;7.636;2023-04-15T03:20:06;9.90;99.90
21031;DHT22;61072;47.808;7.636;2023-04-15T03:22:35;9.90;99.90
21031;DHT22;61072;47.808;7.636;2023-04-15T03:25:01;9.90;99.90
21031;DHT22;61072;47.808;7.636;2023-04-15T03:27:28;9.90;99.90
21031;DHT22;61072;47.808;7.636;2023-04-15T03:29:55;9.90;99.90
21031;DHT22;61072;47.808;7.636;2023-04-15T03:32:22;9.90;99.90
21031;DHT22;61072;47.808;7.636;2023-04-15T03:34:49;9.90;99.90
21031;DHT22;61072;47.808;7.636;2023-04-15T03:37:15;9.90;99.90
21031;DHT22;61072;47.808;7.636;2023-04-15T03:39:42;9.90;99.90
21031;DHT22;61072;47.808;7.636;2023-04-15T03:42:09;9.90;99.90
21031;DHT22;61072;47.808;7.636;2023-04-15T03:44:35;9.90;99.90
21031;DHT22;61072;47.808;7.636;2023-04-15T03:47:02;9.90;99.90
21031;DHT22;61072;47.808;7.636;2023-04-15T03:49:29;9.90;99.90
21031;DHT22;61072;47.808;7.636;2023-04-15T03:51:55;9.90;99.90
21031;DHT22;61072;47.808;7.636;2023-04-15T03:54:22;9.90;99.90
21031;DHT22;61072;47.808;7.636;2023-04-15T03:56:49;9.80;99.90
21031;DHT22;61072;47.808;7.636;2023-04-15T03:59:16;9.80;99.90
21031;DHT22;61072;47.808;7.636;2023-04-15T04:01:43;9.80;99.90
21031;DHT22;61072;47.808;7.636;2023-04-15T04:04:09;9.80;99.90
21031;DHT22;61072;47.808;7.636;2023-04-15T04:06:37;9.80;99.90
21031;DHT22;61072;47.808;7.636;2023-04-15T04:09:03;9.80;99.90
21031;DHT22;61072;47.808;7.636;2023-04-15T04:11:30;9.80;99.90
21031;DHT22;61072;47.808;7.636;2023-04-15T04:13:58;9.80;99.90
21031;DHT22;61072;47.808;7.636;2023-04-15T04:16:25;9.80;99.90
21031;DHT22;61072;47.808;7.636;2023-04-15T04:18:52;9.80;99.90
21031;DHT22;61072;47.808;7.636;2023-04-15T04:21:18;9.80;99.90
21031;DHT22;61072;47.808;7.636;2023-04-15T04:23:46;9.80;99.90
21031;DHT22;61072;47.808;7.636;2023-04-15T04:26:13;9.80;99.90
21031;DHT22;61072;47.808;7.636;2023-04-15T04:28:39;9.80;99.90
21031;DHT22;61072;47.808;7.636;2023-04-15T04:31:06;9.70;99.90
21031;DHT22;61072;47.808;7.636;2023-04-15T04:33:33;9.70;99.90
21031;DHT22;61072;47.808;7.636;2023-04-15T04:36:00;9.80;99.90
21031;DHT22;61072;47.808;7.636;2023-04-15T04:38:27;9.70;99.90
21031;DHT22;61072;47.808;7.636;2023-04-15T04:40:53;9.70;99.90
21031;DHT22;61072;47.808;7.636;2023-04-15T04:43:20;9.70;99.90
21031;DHT22;61072;47.808;7.636;2023-04-15T04:45:47;9.70;99.90
21031;DHT22;61072;47.808;7.636;2023-04-15T04:48:14;9.70;99.90
21031;DHT22;61072;47.808;7.636;2023-04-15T04:50:40;9.60;99.90
21031;DHT22;61072;47.808;7.636;2023-04-15T04:53:07;9.60;99.90
21031;DHT22;61072;47.808;7.636;2023-04-15T04:55:34;9.60;99.90
21031;DHT22;61072;47.808;7.636;2023-04-15T04:58:02;9.60;99.90
21031;DHT22;61072;47.808;7.636;2023-04-15T05:00:29;9.60;99.90
21031;DHT22;61072;47.808;7.636;2023-04-15T05:02:56;9.60;99.90
21031;DHT22;61072;47.808;7.636;2023-04-15T05:05:23;9.60;99.90
21031;DHT22;61072;47.808;7.636;2023-04-15T05:07:49;9.60;99.90
21031;DHT22;61072;47.808;7.636;2023-04-15T05:10:16;9.60;99.90
21031;DHT22;61072;47.808;7.636;2023-04-15T05:12:43;9.60;99.90
21031;DHT22;61072;47.808;7.636;2023-04-15T05:15:10;9.60;99.90
21031;DHT22;61072;47.808;7.636;2023-04-15T05:17:37;9.60;99.90
21031;DHT22;61072;47.808;7.636;2023-04-15T05:20:04;9.60;99.90
21031;DHT22;61072;47.808;7.636;2023-04-15T05:22:31;9.60;99.90
21031;DHT22;61072;47.808;7.636;2023-04-15T05:24:58;9.60;99.90
21031;DHT22;61072;47.808;7.636;2023-04-15T05:27:25;9.70;99.90
21031;DHT22;61072;47.808;7.636;2023-04-15T05:29:52;9.60;99.90
21031;DHT22;61072;47.808;7.636;2023-04-15T05:32:18;9.70;99.90
21031;DHT22;61072;47.808;7.636;2023-04-15T05:34:45;9.70;99.90
21031;DHT22;61072;47.808;7.636;2023-04-15T05:37:12;9.70;99.90
21031;DHT22;61072;47.808;7.636;2023-04-15T05:39:39;9.70;99.90
21031;DHT22;61072;47.808;7.636;2023-04-15T05:42:06;9.80;99.90
21031;DHT22;61072;47.808;7.636;2023-04-15T05:44:33;9.80;99.90
21031;DHT22;61072;47.808;7.636;2023-04-15T05:46:59;9.80;99.90
21031;DHT22;61072;47.808;7.636;2023-04-15T05:49:26;9.80;99.90
21031;DHT22;61072;47.808;7.636;2023-04-15T05:51:53;9.80;99.90
21031;DHT22;61072;47.808;7.636;2023-04-15T05:54:20;9.90;99.90
21031;DHT22;61072;47.808;7.636;2023-04-15T05:56:48;9.90;99.90
21031;DHT22;61072;47.808;7.636;2023-04-15T05:59:15;9.80;99.90
21031;DHT22;61072;47.808;7.636;2023-04-15T06:01:42;9.80;99.90
21031;DHT22;61072;47.808;7.636;2023-04-15T06:04:09;9.80;99.90
21031;DHT22;61072;47.808;7.636;2023-04-15T06:06:37;9.90;99.90
21031;DHT22;61072;47.808;7.636;2023-04-15T06:09:04;9.90;99.90
21031;DHT22;61072;47.808;7.636;2023-04-15T06:11:30;9.90;99.90
21031;DHT22;61072;47.808;7.636;2023-04-15T06:13:57;10.00;99.90
21031;DHT22;61072;47.808;7.636;2023-04-15T06:16:24;10.00;99.90
21031;DHT22;61072;47.808;7.636;2023-04-15T06:18:51;10.00;99.90
21031;DHT22;61072;47.808;7.636;2023-04-15T06:21:18;10.00;99.90
21031;DHT22;61072;47.808;7.636;2023-04-15T06:23:44;10.00;99.90
21031;DHT22;61072;47.808;7.636;2023-04-15T06:26:11;10.10;99.90
21031;DHT22;61072;47.808;7.636;2023-04-15T06:28:38;10.10;99.90
21031;DHT22;61072;47.808;7.636;2023-04-15T06:31:05;10.20;99.90
21031;DHT22;61072;47.808;7.636;2023-04-15T06:33:31;10.20;99.90
21031;DHT22;61072;47.808;7.636;2023-04-15T06:35:58;10.30;99.90
21031;DHT22;61072;47.808;7.636;2023-04-15T06:38:25;10.30;99.90
21031;DHT22;61072;47.808;7.636;2023-04-15T06:40:52;10.40;99.90
21031;DHT22;61072;47.808;7.636;2023-04-15T06:43:18;10.50;99.90
21031;DHT22;61072;47.808;7.636;2023-04-15T06:45:45;10.50;99.90
21031;DHT22;61072;47.808;7.636;2023-04-15T06:48:12;10.60;99.90
21031;DHT22;61072;47.808;7.636;2023-04-15T06:50:39;10.60;99.90
21031;DHT22;61072;47.808;7.636;2023-04-15T06:53:06;10.70;99.90
21031;DHT22;61072;47.808;7.636;2023-04-15T06:55:33;10.70;99.90
21031;DHT22;61072;47.808;7.636;2023-04-15T06:58:00;10.80;99.90
21031;DHT22;61072;47.808;7.636;2023-04-15T07:00:26;10.80;99.90
21031;DHT22;61072;47.808;7.636;2023-04-15T07:02:54;10.90;99.90
21031;DHT22;61072;47.808;7.636;2023-04-15T07:05:21;10.90;99.90
21031;DHT22;61072;47.808;7.636;2023-04-15T07:07:48;11.00;99.90
21031;DHT22;61072;47.808;7.636;2023-04-15T07:10:14;11.10;99.90
21031;DHT22;61072;47.808;7.636;2023-04-15T07:12:41;11.10;99.90
21031;DHT22;61072;47.808;7.636;2023-04-15T07:15:08;11.20;99.90
21031;DHT22;61072;47.808;7.636;2023-04-15T07:17:35;11.30;99.90
21031;DHT22;61072;47.808;7.636;2023-04-15T07:20:02;11.40;99.90
21031;DHT22;61072;47.808;7.636;2023-04-15T07:22:30;11.40;99.90
21031;DHT22;61072;47.808;7.636;2023-04-15T07:24:57;11.50;99.90
21031;DHT22;61072;47.808;7.636;2023-04-15T07:27:23;11.60;99.90
21031;DHT22;61072;47.808;7.636;2023-04-15T07:29:50;11.70;99.90
21031;DHT22;61072;47.808;7.636;2023-04-15T07:32:18;11.70;99.90
21031;DHT22;61072;47.808;7.636;2023-04-15T07:34:44;11.80;99.90
21031;DHT22;61072;47.808;7.636;2023-04-15T07:37:11;11.90;99.90
21031;DHT22;61072;47.808;7.636;2023-04-15T07:39:39;12.00;99.90
21031;DHT22;61072;47.808;7.636;2023-04-15T07:42:05;12.00;99.90
21031;DHT22;61072;47.808;7.636;2023-04-15T07:44:32;12.10;99.90
21031;DHT22;61072;47.808;7.636;2023-04-15T07:47:01;12.20;99.90
21031;DHT22;61072;47.808;7.636;2023-04-15T07:49:28;12.30;99.90
21031;DHT22;61072;47.808;7.636;2023-04-15T07:51:54;12.30;99.90
21031;DHT22;61072;47.808;7.636;2023-04-15T07:54:23;12.30;99.90
21031;DHT22;61072;47.808;7.636;2023-04-15T07:56:49;12.40;99.90
21031;DHT22;61072;47.808;7.636;2023-04-15T07:59:16;12.40;99.90
21031;DHT22;61072;47.808;7.636;2023-04-15T08:01:43;12.40;99.90
21031;DHT22;61072;47.808;7.636;2023-04-15T08:04:10;12.50;99.90
21031;DHT22;61072;47.808;7.636;2023-04-15T08:06:37;12.60;99.90
21031;DHT22;61072;47.808;7.636;2023-04-15T08:09:06;12.60;99.90
21031;DHT22;61072;47.808;7.636;2023-04-15T08:11:33;12.70;99.90
21031;DHT22;61072;47.808;7.636;2023-04-15T08:14:00;12.60;99.90
21031;DHT22;61072;47.808;7.636;2023-04-15T08:16:27;12.70;99.90
21031;DHT22;61072;47.808;7.636;2023-04-15T08:18:55;12.70;99.90
21031;DHT22;61072;47.808;7.636;2023-04-15T08:21:22;12.70;99.90
21031;DHT22;61072;47.808;7.636;2023-04-15T08:23:51;12.70;99.90
21031;DHT22;61072;47.808;7.636;2023-04-15T08:26:19;12.70;99.90
21031;DHT22;61072;47.808;7.636;2023-04-15T08:28:46;12.70;99.90
21031;DHT22;61072;47.808;7.636;2023-04-15T08:31:13;12.80;99.90
21031;DHT22;61072;47.808;7.636;2023-04-15T08:33:41;12.90;99.90
21031;DHT22;61072;47.808;7.636;2023-04-15T08:36:08;12.90;99.90
21031;DHT22;61072;47.808;7.636;2023-04-15T08:38:35;13.00;99.90
21031;DHT22;61072;47.808;7.636;2023-04-15T08:41:25;13.10;99.90
21031;DHT22;61072;47.808;7.636;2023-04-15T08:44:00;13.00;99.90
21031;DHT22;61072;47.808;7.636;2023-04-15T08:46:30;12.90;99.90
21031;DHT22;61072;47.808;7.636;2023-04-15T08:48:58;12.90;99.90
21031;DHT22;61072;47.808;7.636;2023-04-15T08:51:25;12.80;99.90
21031;DHT22;61072;47.808;7.636;2023-04-15T08:53:52;12.80;99.90
21031;DHT22;61072;47.808;7.636;2023-04-15T08:56:23;12.70;99.90
21031;DHT22;61072;47.808;7.636;2023-04-15T08:58:50;12.50;99.90
21031;DHT22;61072;47.808;7.636;2023-04-15T09:01:17;12.60;99.90
21031;DHT22;61072;47.808;7.636;2023-04-15T09:03:45;12.30;99.90
21031;DHT22;61072;47.808;7.636;2023-04-15T09:06:16;12.30;99.90
21031;DHT22;61072;47.808;7.636;2023-04-15T09:08:43;12.20;99.90
21031;DHT22;61072;47.808;7.636;2023-04-15T09:11:10;12.20;99.90
21031;DHT22;61072;47.808;7.636;2023-04-15T09:13:38;12.20;99.90
21031;DHT22;61072;47.808;7.636;2023-04-15T09:16:05;12.10;99.90
21031;DHT22;61072;47.808;7.636;2023-04-15T09:18:33;12.20;99.90
21031;DHT22;61072;47.808;7.636;2023-04-15T09:21:09;12.20;99.90
21031;DHT22;61072;47.808;7.636;2023-04-15T09:23:38;12.30;99.90
21031;DHT22;61072;47.808;7.636;2023-04-15T09:26:05;12.30;99.90
21031;DHT22;61072;47.808;7.636;2023-04-15T09:28:32;12.40;99.90
21031;DHT22;61072;47.808;7.636;2023-04-15T09:31:01;12.40;99.90
21031;DHT22;61072;47.808;7.636;2023-04-15T09:33:29;12.50;99.90
21031;DHT22;61072;47.808;7.636;2023-04-15T09:36:00;12.50;99.90
21031;DHT22;61072;47.808;7.636;2023-04-15T09:38:27;12.50;99.90
21031;DHT22;61072;47.808;7.636;2023-04-15T09:40:54;12.60;99.90
21031;DHT22;61072;47.808;7.636;2023-04-15T09:43:21;12.60;99.90
21031;DHT22;61072;47.808;7.636;2023-04-15T09:45:50;12.60;99.90
21031;DHT22;61072;47.808;7.636;2023-04-15T09:48:19;12.60;99.90
21031;DHT22;61072;47.808;7.636;2023-04-15T09:50:48;12.70;99.90
21031;DHT22;61072;47.808;7.636;2023-04-15T09:53:17;12.70;99.90
21031;DHT22;61072;47.808;7.636;2023-04-15T09:55:48;12.80;99.90
21031;DHT22;61072;47.808;7.636;2023-04-15T09:58:24;12.80;99.90
21031;DHT22;61072;47.808;7.636;2023-04-15T10:00:52;12.60;99.90
21031;DHT22;61072;47.808;7.636;2023-04-15T10:03:29;12.80;99.90
21031;DHT22;61072;47.808;7.636;2023-04-15T10:05:59;12.80;99.90
21031;DHT22;61072;47.808;7.636;2023-04-15T10:08:31;12.90;99.90
21031;DHT22;61072;47.808;7.636;2023-04-15T10:11:00;12.90;99.90
21031;DHT22;61072;47.808;7.636;2023-04-15T10:13:29;13.00;99.90
21031;DHT22;61072;47.808;7.636;2023-04-15T10:16:04;13.10;99.90
21031;DHT22;61072;47.808;7.636;2023-04-15T10:18:34;13.10;99.90
21031;DHT22;61072;47.808;7.636;2023-04-15T10:21:03;13.10;99.90
21031;DHT22;61072;47.808;7.636;2023-04-15T10:23:31;13.10;99.90
21031;DHT22;61072;47.808;7.636;2023-04-15T10:25:59;13.10;99.90
21031;DHT22;61072;47.808;7.636;2023-04-15T10:28:27;13.10;99.90
21031;DHT22;61072;47.808;7.636;2023-04-15T10:30:54;13.20;99.90
21031;DHT22;61072;47.808;7.636;2023-04-15T10:33:24;13.30;99.90
21031;DHT22;61072;47.808;7.636;2023-04-15T10:35:53;13.40;99.90
21031;DHT22;61072;47.808;7.636;2023-04-15T10:41:21;13.60;99.90
21031;DHT22;61072;47.808;7.636;2023-04-15T10:43:53;13.60;99.90
21031;DHT22;61072;47.808;7.636;2023-04-15T10:49:24;13.70;99.90
21031;DHT22;61072;47.808;7.636;2023-04-15T10:51:52;13.70;99.90
21031;DHT22;61072;47.808;7.636;2023-04-15T10:59:58;14.00;99.90
21031;DHT22;61072;47.808;7.636;2023-04-15T11:02:47;14.10;99.90
21031;DHT22;61072;47.808;7.636;2023-04-15T11:05:18;14.10;99.90
21031;DHT22;61072;47.808;7.636;2023-04-15T11:12:53;14.10;99.90
21031;DHT22;61072;47.808;7.636;2023-04-15T11:20:54;14.30;99.90
21031;DHT22;61072;47.808;7.636;2023-04-15T11:23:31;14.30;99.90
21031;DHT22;61072;47.808;7.636;2023-04-15T11:26:00;14.30;99.90
21031;DHT22;61072;47.808;7.636;2023-04-15T11:28:28;14.30;99.90
21031;DHT22;61072;47.808;7.636;2023-04-15T11:30:56;14.20;99.90
21031;DHT22;61072;47.808;7.636;2023-04-15T11:33:24;14.20;99.90
21031;DHT22;61072;47.808;7.636;2023-04-15T11:35:52;14.20;99.90
21031;DHT22;61072;47.808;7.636;2023-04-15T11:38:21;14.20;99.90
21031;DHT22;61072;47.808;7.636;2023-04-15T11:40:50;14.20;99.90
21031;DHT22;61072;47.808;7.636;2023-04-15T11:43:19;14.20;99.90
21031;DHT22;61072;47.808;7.636;2023-04-15T11:48:14;14.30;99.90
21031;DHT22;61072;47.808;7.636;2023-04-15T11:50:41;14.30;99.90
21031;DHT22;61072;47.808;7.636;2023-04-15T11:53:09;14.30;99.90
21031;DHT22;61072;47.808;7.636;2023-04-15T11:55:43;14.40;99.90
21031;DHT22;61072;47.808;7.636;2023-04-15T11:58:15;14.50;99.90
21031;DHT22;61072;47.808;7.636;2023-04-15T12:00:50;14.40;99.90
21031;DHT22;61072;47.808;7.636;2023-04-15T12:03:23;14.50;99.90
21031;DHT22;61072;47.808;7.636;2023-04-15T12:06:22;14.40;99.90
21031;DHT22;61072;47.808;7.636;2023-04-15T12:08:58;14.40;99.90
21031;DHT22;61072;47.808;7.636;2023-04-15T12:14:19;14.40;99.90
21031;DHT22;61072;47.808;7.636;2023-04-15T12:16:49;14.50;99.90
21031;DHT22;61072;47.808;7.636;2023-04-15T12:19:28;14.50;99.90
21031;DHT22;61072;47.808;7.636;2023-04-15T12:22:00;14.60;99.90
21031;DHT22;61072;47.808;7.636;2023-04-15T12:24:28;14.70;99.90
21031;DHT22;61072;47.808;7.636;2023-04-15T12:26:57;14.80;99.90
21031;DHT22;61072;47.808;7.636;2023-04-15T12:29:28;14.80;99.90
21031;DHT22;61072;47.808;7.636;2023-04-15T12:31:57;14.80;99.90
21031;DHT22;61072;47.808;7.636;2023-04-15T12:34:33;14.90;99.90
21031;DHT22;61072;47.808;7.636;2023-04-15T12:37:02;15.00;99.90
21031;DHT22;61072;47.808;7.636;2023-04-15T12:39:30;15.20;99.90
21031;DHT22;61072;47.808;7.636;2023-04-15T12:41:58;15.20;99.90
21031;DHT22;61072;47.808;7.636;2023-04-15T12:44:26;15.40;99.90
21031;DHT22;61072;47.808;7.636;2023-04-15T12:46:53;15.50;99.90
21031;DHT22;61072;47.808;7.636;2023-04-15T12:49:21;15.60;99.90
21031;DHT22;61072;47.808;7.636;2023-04-15T12:51:49;15.70;99.90
21031;DHT22;61072;47.808;7.636;2023-04-15T12:54:16;15.70;99.90
21031;DHT22;61072;47.808;7.636;2023-04-15T12:56:44;15.80;99.90
21031;DHT22;61072;47.808;7.636;2023-04-15T12:59:12;15.80;99.90
21031;DHT22;61072;47.808;7.636;2023-04-15T13:01:39;15.90;99.90
21031;DHT22;61072;47.808;7.636;2023-04-15T13:04:07;16.00;99.90
21031;DHT22;61072;47.808;7.636;2023-04-15T13:06:34;15.90;99.90
21031;DHT22;61072;47.808;7.636;2023-04-15T13:09:02;15.90;99.90
21031;DHT22;61072;47.808;7.636;2023-04-15T13:11:31;15.80;99.90
21031;DHT22;61072;47.808;7.636;2023-04-15T13:14:04;15.80;99.90
21031;DHT22;61072;47.808;7.636;2023-04-15T13:16:31;15.80;99.90
21031;DHT22;61072;47.808;7.636;2023-04-15T13:18:59;15.80;99.90
21031;DHT22;61072;47.808;7.636;2023-04-15T13:21:27;15.90;99.90
21031;DHT22;61072;47.808;7.636;2023-04-15T13:23:54;15.80;99.90
21031;DHT22;61072;47.808;7.636;2023-04-15T13:26:21;15.90;99.90
21031;DHT22;61072;47.808;7.636;2023-04-15T13:28:47;15.90;99.90
21031;DHT22;61072;47.808;7.636;2023-04-15T13:31:14;15.80;99.90
21031;DHT22;61072;47.808;7.636;2023-04-15T13:33:41;15.90;99.90
21031;DHT22;61072;47.808;7.636;2023-04-15T13:36:08;15.90;99.90
21031;DHT22;61072;47.808;7.636;2023-04-15T13:38:35;15.80;99.90
21031;DHT22;61072;47.808;7.636;2023-04-15T13:41:02;15.80;99.90
21031;DHT22;61072;47.808;7.636;2023-04-15T13:43:29;15.80;99.90
21031;DHT22;61072;47.808;7.636;2023-04-15T13:45:56;15.80;99.90
21031;DHT22;61072;47.808;7.636;2023-04-15T13:48:22;15.70;99.90
21031;DHT22;61072;47.808;7.636;2023-04-15T13:50:49;15.60;99.90
21031;DHT22;61072;47.808;7.636;2023-04-15T13:53:16;15.50;99.90
21031;DHT22;61072;47.808;7.636;2023-04-15T13:55:43;15.50;99.90
21031;DHT22;61072;47.808;7.636;2023-04-15T13:58:10;15.50;99.90
21031;DHT22;61072;47.808;7.636;2023-04-15T14:00:37;15.50;99.90
21031;DHT22;61072;47.808;7.636;2023-04-15T14:03:04;15.40;99.90
21031;DHT22;61072;47.808;7.636;2023-04-15T14:05:31;15.40;99.90
21031;DHT22;61072;47.808;7.636;2023-04-15T14:07:58;15.40;99.90
21031;DHT22;61072;47.808;7.636;2023-04-15T14:10:26;15.40;99.90
21031;DHT22;61072;47.808;7.636;2023-04-15T14:12:52;15.40;99.90
21031;DHT22;61072;47.808;7.636;2023-04-15T14:15:20;15.40;99.90
21031;DHT22;61072;47.808;7.636;2023-04-15T14:17:47;15.30;99.90
21031;DHT22;61072;47.808;7.636;2023-04-15T14:20:13;15.30;99.90
21031;DHT22;61072;47.808;7.636;2023-04-15T14:22:42;15.20;99.90
21031;DHT22;61072;47.808;7.636;2023-04-15T14:25:09;15.10;99.90
21031;DHT22;61072;47.808;7.636;2023-04-15T14:27:48;15.00;99.90
21031;DHT22;61072;47.808;7.636;2023-04-15T14:30:16;15.00;99.90
21031;DHT22;61072;47.808;7.636;2023-04-15T14:32:42;14.90;99.90
21031;DHT22;61072;47.808;7.636;2023-04-15T14:35:09;14.80;99.90
21031;DHT22;61072;47.808;7.636;2023-04-15T14:37:36;14.80;99.90
21031;DHT22;61072;47.808;7.636;2023-04-15T14:40:03;14.90;99.90
21031;DHT22;61072;47.808;7.636;2023-04-15T14:42:29;14.90;99.90
21031;DHT22;61072;47.808;7.636;2023-04-15T14:44:56;14.90;99.90
21031;DHT22;61072;47.808;7.636;2023-04-15T14:47:23;14.80;99.90
21031;DHT22;61072;47.808;7.636;2023-04-15T14:49:49;14.90;99.90
21031;DHT22;61072;47.808;7.636;2023-04-15T14:52:16;14.80;99.90
21031;DHT22;61072;47.808;7.636;2023-04-15T14:54:43;14.90;99.90
21031;DHT22;61072;47.808;7.636;2023-04-15T14:57:09;14.90;99.90
21031;DHT22;61072;47.808;7.636;2023-04-15T14:59:36;15.00;99.90
21031;DHT22;61072;47.808;7.636;2023-04-15T15:02:03;15.00;99.90
21031;DHT22;61072;47.808;7.636;2023-04-15T15:04:33;14.90;99.90
21031;DHT22;61072;47.808;7.636;2023-04-15T15:07:00;14.90;99.90
21031;DHT22;61072;47.808;7.636;2023-04-15T15:09:27;14.80;99.90
21031;DHT22;61072;47.808;7.636;2023-04-15T15:11:54;14.80;99.90
21031;DHT22;61072;47.808;7.636;2023-04-15T15:14:23;14.70;99.90
21031;DHT22;61072;47.808;7.636;2023-04-15T15:16:50;14.70;99.90
21031;DHT22;61072;47.808;7.636;2023-04-15T15:19:16;14.60;99.90
21031;DHT22;61072;47.808;7.636;2023-04-15T15:21:43;14.60;99.90
21031;DHT22;61072;47.808;7.636;2023-04-15T15:24:10;14.70;99.90
21031;DHT22;61072;47.808;7.636;2023-04-15T15:26:36;14.60;99.90
21031;DHT22;61072;47.808;7.636;2023-04-15T15:29:03;14.60;99.90
21031;DHT22;61072;47.808;7.636;2023-04-15T15:31:30;14.60;99.90
21031;DHT22;61072;47.808;7.636;2023-04-15T15:33:57;14.50;99.90
21031;DHT22;61072;47.808;7.636;2023-04-15T15:36:24;14.50;99.90
21031;DHT22;61072;47.808;7.636;2023-04-15T15:38:52;14.40;99.90
21031;DHT22;61072;47.808;7.636;2023-04-15T15:41:19;14.40;99.90
21031;DHT22;61072;47.808;7.636;2023-04-15T15:43:46;14.40;99.90
21031;DHT22;61072;47.808;7.636;2023-04-15T15:46:13;14.40;99.90
21031;DHT22;61072;47.808;7.636;2023-04-15T15:48:40;14.40;99.90
21031;DHT22;61072;47.808;7.636;2023-04-15T15:51:07;14.40;99.90
21031;DHT22;61072;47.808;7.636;2023-04-15T15:53:34;14.40;99.90
21031;DHT22;61072;47.808;7.636;2023-04-15T15:56:01;14.40;99.90
21031;DHT22;61072;47.808;7.636;2023-04-15T15:58:30;14.40;99.90
21031;DHT22;61072;47.808;7.636;2023-04-15T16:00:58;14.50;99.90
21031;DHT22;61072;47.808;7.636;2023-04-15T16:03:27;14.50;99.90
21031;DHT22;61072;47.808;7.636;2023-04-15T16:05:54;14.50;99.90
21031;DHT22;61072;47.808;7.636;2023-04-15T16:08:21;14.50;99.90